createdAt,value
2023-05-14T00:03:38.885Z,4.50
2023-05-14T00:08:41.053Z,4.50
2023-05-14T00:13:43.471Z,4.20
2023-05-14T00:18:45.685Z,4.20
2023-05-14T00:23:48.270Z,4.80
2023-05-14T00:28:50.830Z,4.90
2023-05-14T00:33:53.388Z,4.63
2023-05-14T00:38:56.037Z,6.03
2023-05-14T00:43:58.305Z,4.90
2023-05-14T00:49:01.020Z,5.20
2023-05-14T00:54:03.676Z,4.83
2023-05-14T00:59:06.159Z,5.50
2023-05-14T01:04:10.914Z,5.50
2023-05-14T01:09:31.691Z,4.70
2023-05-14T01:14:57.231Z,5.20
2023-05-14T01:20:00.913Z,4.90
2023-05-14T01:25:03.244Z,4.37
2023-05-14T01:30:37.621Z,4.63
2023-05-14T01:35:41.298Z,5.23
2023-05-14T01:40:45.578Z,4.80
2023-05-14T01:45:48.121Z,5.30
2023-05-14T01:50:50.793Z,5.70
2023-05-14T01:55:53.057Z,4.87
2023-05-14T02:00:55.266Z,5.13
2023-05-14T02:05:57.533Z,5.27
2023-05-14T02:10:59.796Z,6.30
2023-05-14T02:16:02.105Z,6.37
2023-05-14T02:21:04.579Z,11.27
2023-05-14T02:26:08.643Z,8.57
2023-05-14T02:31:10.848Z,6.20
2023-05-14T02:36:13.471Z,5.90
2023-05-14T02:41:15.613Z,6.10
2023-05-14T02:46:17.938Z,6.80
2023-05-14T02:51:21.623Z,6.43
2023-05-14T02:56:23.996Z,7.03
2023-05-14T03:01:26.462Z,7.83
2023-05-14T03:06:29.248Z,9.47
2023-05-14T03:11:31.686Z,6.90
2023-05-14T03:16:33.999Z,10.00
2023-05-14T03:21:36.347Z,6.13
2023-05-14T03:26:38.519Z,6.03
2023-05-14T03:31:40.868Z,6.07
2023-05-14T03:36:43.185Z,7.07
2023-05-14T03:41:46.473Z,6.57
2023-05-14T03:46:48.915Z,6.60
2023-05-14T03:51:51.101Z,6.30
2023-05-14T03:56:53.426Z,5.60
2023-05-14T04:01:55.749Z,6.80
2023-05-14T04:06:57.995Z,6.83
2023-05-14T04:12:00.361Z,6.20
2023-05-14T04:17:02.902Z,6.30
2023-05-14T04:22:05.739Z,6.73
2023-05-14T04:27:07.957Z,6.97
2023-05-14T04:32:10.693Z,7.43
2023-05-14T04:37:13.075Z,7.10
2023-05-14T04:42:15.293Z,7.93
2023-05-14T04:47:17.797Z,7.40
2023-05-14T04:52:20.046Z,6.40
2023-05-14T04:57:22.166Z,7.50
2023-05-14T05:02:24.433Z,6.80
2023-05-14T05:07:26.676Z,6.83
2023-05-14T05:12:30.211Z,5.90
2023-05-14T05:17:32.603Z,5.40
2023-05-14T05:22:34.842Z,6.37
2023-05-14T05:27:37.113Z,5.87
2023-05-14T05:32:39.505Z,5.33
2023-05-14T05:37:42.507Z,6.23
2023-05-14T05:42:44.712Z,5.40
2023-05-14T05:47:47.021Z,5.73
2023-05-14T05:52:49.361Z,5.23
2023-05-14T05:57:51.609Z,5.00
2023-05-14T06:02:53.981Z,5.30
2023-05-14T06:07:56.248Z,6.10
2023-05-14T06:12:58.458Z,4.83
2023-05-14T06:18:00.811Z,5.63
2023-05-14T06:23:03.104Z,6.90
2023-05-14T06:28:05.548Z,7.47
2023-05-14T06:33:07.946Z,6.90
2023-05-14T06:38:10.197Z,6.53
2023-05-14T06:43:12.424Z,7.40
2023-05-14T06:48:14.815Z,7.10
2023-05-14T06:53:17.207Z,7.83
2023-05-14T06:58:19.486Z,7.57
2023-05-14T07:03:22.414Z,7.23
2023-05-14T07:08:24.693Z,7.60
2023-05-14T07:13:28.892Z,7.43
2023-05-14T07:18:31.413Z,5.80
2023-05-14T07:23:38.500Z,7.20
2023-05-14T07:28:40.630Z,6.40
2023-05-14T07:33:42.848Z,7.83
2023-05-14T07:38:45.076Z,6.43
2023-05-14T07:43:47.313Z,6.77
2023-05-14T07:48:49.546Z,7.73
2023-05-14T07:53:51.624Z,8.00
2023-05-14T07:58:53.808Z,7.77
2023-05-14T08:03:56.049Z,7.50
2023-05-14T08:08:58.426Z,7.90
2023-05-14T08:14:01.048Z,8.00
2023-05-14T08:19:03.292Z,7.70
2023-05-14T08:24:06.112Z,8.10
2023-05-14T08:29:10.013Z,7.30
2023-05-14T08:34:13.129Z,8.37
2023-05-14T08:39:15.454Z,8.80
2023-05-14T08:44:33.200Z,7.90
2023-05-14T08:49:46.733Z,8.10
2023-05-14T08:54:51.401Z,8.70
2023-05-14T08:59:54.493Z,8.40
2023-05-14T09:04:59.260Z,7.83
2023-05-14T09:10:02.808Z,8.67
2023-05-14T09:15:06.440Z,8.80
2023-05-14T09:20:12.254Z,7.70
2023-05-14T09:25:14.396Z,8.63
2023-05-14T09:30:17.072Z,8.30
2023-05-14T09:35:22.753Z,8.50
2023-05-14T09:40:25.415Z,7.63
2023-05-14T09:45:27.732Z,7.70
2023-05-14T09:50:30.148Z,6.43
2023-05-14T09:55:32.797Z,6.27
2023-05-14T10:00:35.898Z,5.40
2023-05-14T10:05:41.235Z,5.00
2023-05-14T10:10:43.484Z,5.30
2023-05-14T10:16:02.675Z,3.87
2023-05-14T10:21:06.986Z,5.23
2023-05-14T10:26:10.022Z,5.63
2023-05-14T10:31:13.631Z,5.90
2023-05-14T10:36:16.548Z,4.90
2023-05-14T10:41:21.622Z,5.30
2023-05-14T10:46:23.918Z,6.00
2023-05-14T10:51:26.634Z,4.63
2023-05-14T10:56:29.792Z,4.30
2023-05-14T11:01:32.598Z,4.27
2023-05-14T11:06:38.161Z,4.50
2023-05-14T11:11:40.683Z,4.57
2023-05-14T11:16:43.542Z,3.50
2023-05-14T11:21:46.125Z,3.37
2023-05-14T11:26:48.314Z,3.50
2023-05-14T11:31:51.151Z,4.33
2023-05-14T11:36:53.289Z,3.80
2023-05-14T11:41:55.701Z,3.30
2023-05-14T11:46:59.351Z,3.37
2023-05-14T11:52:11.532Z,3.20
2023-05-14T11:57:19.930Z,3.40
2023-05-14T12:02:23.096Z,3.03
2023-05-14T12:07:30.588Z,3.37
2023-05-14T12:12:39.971Z,2.83
2023-05-14T12:17:42.466Z,2.63
2023-05-14T12:22:44.651Z,2.50
2023-05-14T12:27:46.897Z,2.80
2023-05-14T12:32:51.833Z,2.57
2023-05-14T12:37:54.298Z,2.97
2023-05-14T12:42:56.973Z,2.17
2023-05-14T12:47:59.413Z,2.80
2023-05-14T12:53:01.605Z,2.60
2023-05-14T12:58:04.260Z,2.60
2023-05-14T13:03:06.499Z,2.60
2023-05-14T13:08:10.014Z,2.43
2023-05-14T13:13:13.053Z,2.70
2023-05-14T13:18:17.346Z,3.40
2023-05-14T13:23:19.561Z,3.20
2023-05-14T13:28:21.677Z,2.80
2023-05-14T13:33:23.768Z,3.30
2023-05-14T13:38:26.014Z,3.07
2023-05-14T13:43:31.940Z,2.57
2023-05-14T13:48:35.746Z,2.87
2023-05-14T13:53:37.977Z,1.93
2023-05-14T13:58:40.246Z,1.93
2023-05-14T14:03:42.450Z,1.40
2023-05-14T14:08:44.809Z,1.30
2023-05-14T14:13:47.518Z,1.83
2023-05-14T14:18:49.746Z,1.50
2023-05-14T14:23:52.041Z,2.17
2023-05-14T14:28:54.896Z,2.43
2023-05-14T14:33:57.144Z,2.00
2023-05-14T14:38:59.413Z,1.90
2023-05-14T14:44:02.773Z,1.67
2023-05-14T14:49:05.162Z,1.80
2023-05-14T14:54:07.456Z,1.83
2023-05-14T14:59:09.683Z,1.83
2023-05-14T15:04:11.792Z,1.63
2023-05-14T15:09:14.014Z,1.77
2023-05-14T15:14:16.266Z,1.40
2023-05-14T15:19:18.610Z,1.43
2023-05-14T15:24:21.103Z,1.40
2023-05-14T15:29:23.379Z,1.50
2023-05-14T15:34:26.108Z,1.53
2023-05-14T15:39:29.582Z,1.43
2023-05-14T15:44:32.464Z,1.37
2023-05-14T15:49:34.573Z,1.30
2023-05-14T15:54:36.943Z,1.80
2023-05-14T15:59:39.502Z,2.70
2023-05-14T16:04:42.097Z,2.90
2023-05-14T16:09:44.377Z,2.23
2023-05-14T16:14:46.593Z,3.53
2023-05-14T16:19:48.858Z,3.47
2023-05-14T16:24:51.026Z,4.80
2023-05-14T16:29:53.614Z,10.57
2023-05-14T16:34:56.501Z,3.77
2023-05-14T16:39:58.719Z,11.67
2023-05-14T16:45:01.125Z,25.67
2023-05-14T16:50:03.368Z,16.57
2023-05-14T16:55:06.301Z,15.60
2023-05-14T17:00:09.604Z,14.27
2023-05-14T17:05:11.763Z,4.40
2023-05-14T17:10:14.050Z,4.10
2023-05-14T17:15:16.719Z,2.97
2023-05-14T17:20:18.880Z,4.03
2023-05-14T17:25:23.660Z,4.17
2023-05-14T17:30:26.177Z,4.87
2023-05-14T17:35:28.507Z,4.40
2023-05-14T17:40:30.846Z,3.80
2023-05-14T17:45:42.589Z,3.50
2023-05-14T17:50:48.963Z,4.97
2023-05-14T17:55:51.637Z,4.50
2023-05-14T18:00:53.836Z,4.50
2023-05-14T18:05:56.216Z,5.00
2023-05-14T18:11:00.711Z,4.90
2023-05-14T18:16:03.917Z,4.87
2023-05-14T18:21:06.024Z,5.70
2023-05-14T18:26:08.432Z,5.23
2023-05-14T18:31:10.719Z,5.60
2023-05-14T18:36:12.860Z,5.07
2023-05-14T18:41:15.105Z,5.27
2023-05-14T18:46:18.236Z,4.87
2023-05-14T18:51:20.592Z,5.00
2023-05-14T18:56:22.764Z,4.80
2023-05-14T19:01:25.753Z,4.47
2023-05-14T19:06:28.083Z,5.47
2023-05-14T19:11:30.386Z,6.10
2023-05-14T19:16:32.631Z,6.10
2023-05-14T19:21:34.945Z,5.97
2023-05-14T19:26:37.360Z,6.33
2023-05-14T19:31:39.690Z,6.57
2023-05-14T19:36:42.398Z,5.70
2023-05-14T19:41:44.729Z,6.17
2023-05-14T19:46:46.967Z,5.93
2023-05-14T19:51:49.126Z,6.37
2023-05-14T19:56:51.221Z,6.50
2023-05-14T20:01:54.703Z,6.50
2023-05-14T20:06:57.004Z,6.40
2023-05-14T20:11:59.208Z,6.13
2023-05-14T20:17:01.726Z,6.27
2023-05-14T20:22:04.003Z,6.27
2023-05-14T20:27:06.655Z,5.20
2023-05-14T20:32:08.964Z,5.47
2023-05-14T20:37:11.100Z,4.80
2023-05-14T20:42:13.380Z,4.80
2023-05-14T20:47:20.229Z,5.20
2023-05-14T20:52:23.134Z,4.60
2023-05-14T20:57:25.655Z,5.30
2023-05-14T21:02:27.914Z,4.13
2023-05-14T21:07:30.320Z,5.10
2023-05-14T21:12:32.487Z,6.10
2023-05-14T21:17:34.875Z,5.57
2023-05-14T21:22:37.226Z,4.60
2023-05-14T21:27:39.414Z,5.90
2023-05-14T21:32:41.876Z,4.77
2023-05-14T21:37:44.194Z,5.10
2023-05-14T21:42:46.304Z,6.00
2023-05-14T21:47:48.477Z,5.40
2023-05-14T21:52:50.665Z,5.17
2023-05-14T21:57:52.899Z,5.23
2023-05-14T22:02:55.481Z,5.30
2023-05-14T22:07:57.790Z,5.00
2023-05-14T22:12:59.898Z,3.83
2023-05-14T22:18:03.374Z,4.10
2023-05-14T22:23:05.569Z,3.23
2023-05-14T22:28:07.795Z,3.67
2023-05-14T22:33:10.286Z,3.90
2023-05-14T22:38:14.089Z,3.87
2023-05-14T22:43:16.500Z,4.17
2023-05-14T22:48:18.758Z,5.37
2023-05-14T22:53:21.004Z,5.50
2023-05-14T22:58:23.180Z,5.20
2023-05-14T23:03:25.611Z,4.70
2023-05-14T23:08:27.885Z,4.80
2023-05-14T23:13:30.149Z,5.43
2023-05-14T23:18:33.079Z,5.67
2023-05-14T23:23:36.130Z,5.60
2023-05-14T23:28:38.521Z,5.10
2023-05-14T23:33:40.864Z,5.90
2023-05-14T23:38:43.294Z,5.73
2023-05-14T23:43:45.613Z,5.50
2023-05-14T23:48:47.888Z,4.77
2023-05-14T23:53:50.507Z,5.40
2023-05-14T23:58:52.964Z,4.73
